sensor_id;sensor_type;location;lat;lon;timestamp;P1;durP1;ratioP1;P2;durP2;ratioP2
47021;SDS011;32779;52.264;6.154;2023-04-20T00:00:15;3.38;;;1.85;;
47021;SDS011;32779;52.264;6.154;2023-04-20T00:02:41;3.13;;;1.95;;
47021;SDS011;32779;52.264;6.154;2023-04-20T00:05:07;3.28;;;2.00;;
47021;SDS011;32779;52.264;6.154;2023-04-20T00:07:34;3.78;;;1.63;;
47021;SDS011;32779;52.264;6.154;2023-04-20T00:10:02;9.18;;;2.60;;
47021;SDS011;32779;52.264;6.154;2023-04-20T00:12:28;7.47;;;2.20;;
47021;SDS011;32779;52.264;6.154;2023-04-20T00:14:54;4.85;;;2.15;;
47021;SDS011;32779;52.264;6.154;2023-04-20T00:17:20;4.45;;;1.95;;
47021;SDS011;32779;52.264;6.154;2023-04-20T00:19:46;9.20;;;2.20;;
47021;SDS011;32779;52.264;6.154;2023-04-20T00:22:12;4.32;;;2.08;;
47021;SDS011;32779;52.264;6.154;2023-04-20T00:24:37;4.63;;;2.10;;
47021;SDS011;32779;52.264;6.154;2023-04-20T00:27:03;10.32;;;2.45;;
47021;SDS011;32779;52.264;6.154;2023-04-20T00:29:29;5.07;;;2.53;;
47021;SDS011;32779;52.264;6.154;2023-04-20T00:31:55;5.03;;;2.22;;
47021;SDS011;32779;52.264;6.154;2023-04-20T00:34:20;4.15;;;2.15;;
47021;SDS011;32779;52.264;6.154;2023-04-20T00:36:46;8.75;;;2.17;;
47021;SDS011;32779;52.264;6.154;2023-04-20T00:39:12;4.30;;;2.00;;
47021;SDS011;32779;52.264;6.154;2023-04-20T00:41:37;6.60;;;2.60;;
47021;SDS011;32779;52.264;6.154;2023-04-20T00:44:03;5.07;;;2.42;;
47021;SDS011;32779;52.264;6.154;2023-04-20T00:46:30;5.95;;;2.30;;
47021;SDS011;32779;52.264;6.154;2023-04-20T00:48:56;4.45;;;2.13;;
47021;SDS011;32779;52.264;6.154;2023-04-20T00:51:21;6.70;;;2.13;;
47021;SDS011;32779;52.264;6.154;2023-04-20T00:53:47;7.00;;;2.72;;
47021;SDS011;32779;52.264;6.154;2023-04-20T00:56:13;5.30;;;2.53;;
47021;SDS011;32779;52.264;6.154;2023-04-20T00:58:40;4.82;;;2.38;;
47021;SDS011;32779;52.264;6.154;2023-04-20T01:01:07;4.05;;;2.05;;
47021;SDS011;32779;52.264;6.154;2023-04-20T01:03:34;4.00;;;2.40;;
47021;SDS011;32779;52.264;6.154;2023-04-20T01:06:00;3.33;;;2.35;;
47021;SDS011;32779;52.264;6.154;2023-04-20T01:08:26;9.15;;;2.20;;
47021;SDS011;32779;52.264;6.154;2023-04-20T01:10:55;6.93;;;2.50;;
47021;SDS011;32779;52.264;6.154;2023-04-20T01:13:21;6.47;;;2.40;;
47021;SDS011;32779;52.264;6.154;2023-04-20T01:15:47;5.72;;;2.50;;
47021;SDS011;32779;52.264;6.154;2023-04-20T01:18:13;4.28;;;2.92;;
47021;SDS011;32779;52.264;6.154;2023-04-20T01:20:39;7.07;;;2.42;;
47021;SDS011;32779;52.264;6.154;2023-04-20T01:23:05;5.32;;;2.50;;
47021;SDS011;32779;52.264;6.154;2023-04-20T01:25:30;7.25;;;2.90;;
47021;SDS011;32779;52.264;6.154;2023-04-20T01:27:56;7.50;;;2.85;;
47021;SDS011;32779;52.264;6.154;2023-04-20T01:30:21;4.45;;;2.58;;
47021;SDS011;32779;52.264;6.154;2023-04-20T01:32:47;8.32;;;2.65;;
47021;SDS011;32779;52.264;6.154;2023-04-20T01:35:13;7.97;;;2.72;;
47021;SDS011;32779;52.264;6.154;2023-04-20T01:37:39;3.88;;;2.60;;
47021;SDS011;32779;52.264;6.154;2023-04-20T01:40:07;4.10;;;2.88;;
47021;SDS011;32779;52.264;6.154;2023-04-20T01:42:34;4.05;;;2.70;;
47021;SDS011;32779;52.264;6.154;2023-04-20T01:45:00;7.45;;;2.63;;
47021;SDS011;32779;52.264;6.154;2023-04-20T01:47:25;6.13;;;2.88;;
47021;SDS011;32779;52.264;6.154;2023-04-20T01:49:51;8.77;;;2.70;;
47021;SDS011;32779;52.264;6.154;2023-04-20T01:52:16;3.45;;;2.45;;
47021;SDS011;32779;52.264;6.154;2023-04-20T01:54:42;7.22;;;2.83;;
47021;SDS011;32779;52.264;6.154;2023-04-20T01:57:08;3.30;;;2.67;;
47021;SDS011;32779;52.264;6.154;2023-04-20T01:59:33;7.47;;;2.90;;
47021;SDS011;32779;52.264;6.154;2023-04-20T02:01:59;5.10;;;3.00;;
47021;SDS011;32779;52.264;6.154;2023-04-20T02:04:25;6.85;;;2.85;;
47021;SDS011;32779;52.264;6.154;2023-04-20T02:06:50;5.63;;;3.20;;
47021;SDS011;32779;52.264;6.154;2023-04-20T02:09:16;7.72;;;2.95;;
47021;SDS011;32779;52.264;6.154;2023-04-20T02:11:41;8.30;;;3.15;;
47021;SDS011;32779;52.264;6.154;2023-04-20T02:14:07;9.80;;;2.65;;
47021;SDS011;32779;52.264;6.154;2023-04-20T02:16:33;4.45;;;2.55;;
47021;SDS011;32779;52.264;6.154;2023-04-20T02:18:59;4.72;;;3.03;;
47021;SDS011;32779;52.264;6.154;2023-04-20T02:21:25;3.90;;;2.80;;
47021;SDS011;32779;52.264;6.154;2023-04-20T02:23:51;6.47;;;2.85;;
47021;SDS011;32779;52.264;6.154;2023-04-20T02:26:17;6.78;;;2.90;;
47021;SDS011;32779;52.264;6.154;2023-04-20T02:28:43;5.43;;;2.95;;
47021;SDS011;32779;52.264;6.154;2023-04-20T02:31:08;10.18;;;2.80;;
47021;SDS011;32779;52.264;6.154;2023-04-20T02:33:34;12.18;;;3.28;;
47021;SDS011;32779;52.264;6.154;2023-04-20T02:36:00;8.60;;;2.53;;
47021;SDS011;32779;52.264;6.154;2023-04-20T02:38:25;11.95;;;3.38;;
47021;SDS011;32779;52.264;6.154;2023-04-20T02:40:51;8.30;;;2.78;;
47021;SDS011;32779;52.264;6.154;2023-04-20T02:43:17;3.85;;;2.70;;
47021;SDS011;32779;52.264;6.154;2023-04-20T02:45:43;5.43;;;2.90;;
47021;SDS011;32779;52.264;6.154;2023-04-20T02:48:08;7.10;;;3.22;;
47021;SDS011;32779;52.264;6.154;2023-04-20T02:50:34;11.68;;;3.33;;
47021;SDS011;32779;52.264;6.154;2023-04-20T02:53:00;9.27;;;2.72;;
47021;SDS011;32779;52.264;6.154;2023-04-20T02:55:26;4.53;;;2.70;;
47021;SDS011;32779;52.264;6.154;2023-04-20T02:57:51;5.53;;;2.72;;
47021;SDS011;32779;52.264;6.154;2023-04-20T03:00:17;11.35;;;3.47;;
47021;SDS011;32779;52.264;6.154;2023-04-20T03:02:43;9.38;;;3.25;;
47021;SDS011;32779;52.264;6.154;2023-04-20T03:05:08;3.97;;;2.70;;
47021;SDS011;32779;52.264;6.154;2023-04-20T03:07:34;6.90;;;3.10;;
47021;SDS011;32779;52.264;6.154;2023-04-20T03:10:00;5.05;;;2.70;;
47021;SDS011;32779;52.264;6.154;2023-04-20T03:12:25;3.35;;;2.53;;
47021;SDS011;32779;52.264;6.154;2023-04-20T03:14:51;6.05;;;2.80;;
47021;SDS011;32779;52.264;6.154;2023-04-20T03:17:16;4.95;;;2.72;;
47021;SDS011;32779;52.264;6.154;2023-04-20T03:19:42;6.18;;;2.85;;
47021;SDS011;32779;52.264;6.154;2023-04-20T03:22:07;9.88;;;3.20;;
47021;SDS011;32779;52.264;6.154;2023-04-20T03:24:33;4.70;;;2.78;;
47021;SDS011;32779;52.264;6.154;2023-04-20T03:26:59;5.80;;;2.85;;
47021;SDS011;32779;52.264;6.154;2023-04-20T03:29:25;6.05;;;2.50;;
47021;SDS011;32779;52.264;6.154;2023-04-20T03:31:50;7.47;;;2.72;;
47021;SDS011;32779;52.264;6.154;2023-04-20T03:34:16;4.68;;;2.70;;
47021;SDS011;32779;52.264;6.154;2023-04-20T03:36:41;8.57;;;2.83;;
47021;SDS011;32779;52.264;6.154;2023-04-20T03:39:07;5.15;;;3.22;;
47021;SDS011;32779;52.264;6.154;2023-04-20T03:41:33;7.43;;;2.92;;
47021;SDS011;32779;52.264;6.154;2023-04-20T03:43:59;5.25;;;2.50;;
47021;SDS011;32779;52.264;6.154;2023-04-20T03:46:25;6.70;;;3.10;;
47021;SDS011;32779;52.264;6.154;2023-04-20T03:48:50;3.45;;;2.60;;
47021;SDS011;32779;52.264;6.154;2023-04-20T03:51:16;8.05;;;2.85;;
47021;SDS011;32779;52.264;6.154;2023-04-20T03:53:41;4.22;;;2.72;;
47021;SDS011;32779;52.264;6.154;2023-04-20T03:56:07;7.95;;;3.10;;
47021;SDS011;32779;52.264;6.154;2023-04-20T03:58:33;10.15;;;3.28;;
47021;SDS011;32779;52.264;6.154;2023-04-20T04:01:05;6.38;;;3.17;;
47021;SDS011;32779;52.264;6.154;2023-04-20T04:03:32;7.90;;;2.70;;
47021;SDS011;32779;52.264;6.154;2023-04-20T04:08:23;4.55;;;2.85;;
47021;SDS011;32779;52.264;6.154;2023-04-20T04:10:49;6.65;;;2.60;;
47021;SDS011;32779;52.264;6.154;2023-04-20T04:13:15;5.75;;;2.83;;
47021;SDS011;32779;52.264;6.154;2023-04-20T04:15:41;6.55;;;3.03;;
47021;SDS011;32779;52.264;6.154;2023-04-20T04:18:06;7.07;;;3.30;;
47021;SDS011;32779;52.264;6.154;2023-04-20T04:20:32;9.35;;;2.95;;
47021;SDS011;32779;52.264;6.154;2023-04-20T04:22:58;5.32;;;3.10;;
47021;SDS011;32779;52.264;6.154;2023-04-20T04:25:23;6.78;;;3.22;;
47021;SDS011;32779;52.264;6.154;2023-04-20T04:27:49;4.50;;;2.90;;
47021;SDS011;32779;52.264;6.154;2023-04-20T04:30:15;4.63;;;2.80;;
47021;SDS011;32779;52.264;6.154;2023-04-20T04:32:41;5.43;;;2.95;;
47021;SDS011;32779;52.264;6.154;2023-04-20T04:35:08;5.32;;;2.70;;
47021;SDS011;32779;52.264;6.154;2023-04-20T04:37:34;4.45;;;2.50;;
47021;SDS011;32779;52.264;6.154;2023-04-20T04:42:26;8.43;;;3.20;;
47021;SDS011;32779;52.264;6.154;2023-04-20T04:47:20;6.65;;;2.75;;
47021;SDS011;32779;52.264;6.154;2023-04-20T04:49:46;4.75;;;2.63;;
47021;SDS011;32779;52.264;6.154;2023-04-20T04:52:12;6.50;;;2.70;;
47021;SDS011;32779;52.264;6.154;2023-04-20T04:54:38;4.88;;;2.97;;
47021;SDS011;32779;52.264;6.154;2023-04-20T04:57:04;4.60;;;2.72;;
47021;SDS011;32779;52.264;6.154;2023-04-20T04:59:30;8.68;;;3.13;;
47021;SDS011;32779;52.264;6.154;2023-04-20T05:01:55;8.73;;;2.80;;
47021;SDS011;32779;52.264;6.154;2023-04-20T05:04:21;5.25;;;3.00;;
47021;SDS011;32779;52.264;6.154;2023-04-20T05:06:47;5.85;;;2.60;;
47021;SDS011;32779;52.264;6.154;2023-04-20T05:09:12;4.60;;;2.50;;
47021;SDS011;32779;52.264;6.154;2023-04-20T05:11:38;5.75;;;2.88;;
47021;SDS011;32779;52.264;6.154;2023-04-20T05:14:03;6.50;;;3.20;;
47021;SDS011;32779;52.264;6.154;2023-04-20T05:16:29;5.95;;;3.13;;
47021;SDS011;32779;52.264;6.154;2023-04-20T05:18:55;4.63;;;3.35;;
47021;SDS011;32779;52.264;6.154;2023-04-20T05:21:20;7.03;;;2.90;;
47021;SDS011;32779;52.264;6.154;2023-04-20T05:23:46;3.83;;;2.40;;
47021;SDS011;32779;52.264;6.154;2023-04-20T05:26:11;9.50;;;3.17;;
47021;SDS011;32779;52.264;6.154;2023-04-20T05:28:37;6.47;;;3.15;;
47021;SDS011;32779;52.264;6.154;2023-04-20T05:31:03;7.13;;;3.00;;
47021;SDS011;32779;52.264;6.154;2023-04-20T05:33:28;9.05;;;3.30;;
47021;SDS011;32779;52.264;6.154;2023-04-20T05:35:55;7.50;;;3.47;;
47021;SDS011;32779;52.264;6.154;2023-04-20T05:38:21;5.07;;;2.88;;
47021;SDS011;32779;52.264;6.154;2023-04-20T05:40:47;5.75;;;2.60;;
47021;SDS011;32779;52.264;6.154;2023-04-20T05:43:12;7.97;;;3.58;;
47021;SDS011;32779;52.264;6.154;2023-04-20T05:45:38;7.93;;;3.45;;
47021;SDS011;32779;52.264;6.154;2023-04-20T05:48:04;4.53;;;2.55;;
47021;SDS011;32779;52.264;6.154;2023-04-20T05:50:29;7.50;;;3.15;;
47021;SDS011;32779;52.264;6.154;2023-04-20T05:52:55;5.22;;;3.38;;
47021;SDS011;32779;52.264;6.154;2023-04-20T05:55:21;7.07;;;3.20;;
47021;SDS011;32779;52.264;6.154;2023-04-20T05:57:46;8.05;;;3.15;;
47021;SDS011;32779;52.264;6.154;2023-04-20T06:00:12;9.18;;;3.42;;
47021;SDS011;32779;52.264;6.154;2023-04-20T06:02:40;9.82;;;3.30;;
47021;SDS011;32779;52.264;6.154;2023-04-20T06:05:07;8.35;;;3.30;;
47021;SDS011;32779;52.264;6.154;2023-04-20T06:07:34;5.32;;;3.10;;
47021;SDS011;32779;52.264;6.154;2023-04-20T06:09:59;6.53;;;3.28;;
47021;SDS011;32779;52.264;6.154;2023-04-20T06:14:51;6.40;;;2.78;;
47021;SDS011;32779;52.264;6.154;2023-04-20T06:17:17;6.07;;;3.45;;
47021;SDS011;32779;52.264;6.154;2023-04-20T06:19:43;7.05;;;3.50;;
47021;SDS011;32779;52.264;6.154;2023-04-20T06:22:08;5.68;;;3.47;;
47021;SDS011;32779;52.264;6.154;2023-04-20T06:24:34;9.20;;;3.33;;
47021;SDS011;32779;52.264;6.154;2023-04-20T06:27:02;6.00;;;3.42;;
47021;SDS011;32779;52.264;6.154;2023-04-20T06:29:28;6.93;;;3.38;;
47021;SDS011;32779;52.264;6.154;2023-04-20T06:31:54;7.50;;;3.63;;
47021;SDS011;32779;52.264;6.154;2023-04-20T06:34:19;13.02;;;3.78;;
47021;SDS011;32779;52.264;6.154;2023-04-20T06:36:45;8.00;;;3.10;;
47021;SDS011;32779;52.264;6.154;2023-04-20T06:39:11;9.48;;;3.50;;
47021;SDS011;32779;52.264;6.154;2023-04-20T06:41:37;13.20;;;3.83;;
47021;SDS011;32779;52.264;6.154;2023-04-20T06:44:03;10.10;;;3.30;;
47021;SDS011;32779;52.264;6.154;2023-04-20T06:48:54;9.23;;;3.63;;
47021;SDS011;32779;52.264;6.154;2023-04-20T06:51:20;10.00;;;3.53;;
47021;SDS011;32779;52.264;6.154;2023-04-20T06:53:45;6.75;;;2.95;;
47021;SDS011;32779;52.264;6.154;2023-04-20T06:56:11;7.05;;;3.10;;
47021;SDS011;32779;52.264;6.154;2023-04-20T06:58:36;6.88;;;3.10;;
47021;SDS011;32779;52.264;6.154;2023-04-20T07:01:02;6.63;;;3.17;;
47021;SDS011;32779;52.264;6.154;2023-04-20T07:03:28;6.88;;;3.05;;
47021;SDS011;32779;52.264;6.154;2023-04-20T07:05:54;8.77;;;3.10;;
47021;SDS011;32779;52.264;6.154;2023-04-20T07:08:19;8.63;;;3.20;;
47021;SDS011;32779;52.264;6.154;2023-04-20T07:10:45;5.82;;;3.35;;
47021;SDS011;32779;52.264;6.154;2023-04-20T07:13:11;6.20;;;3.53;;
47021;SDS011;32779;52.264;6.154;2023-04-20T07:15:37;6.03;;;3.55;;
47021;SDS011;32779;52.264;6.154;2023-04-20T07:18:02;6.63;;;3.53;;
47021;SDS011;32779;52.264;6.154;2023-04-20T07:20:28;7.40;;;3.38;;
47021;SDS011;32779;52.264;6.154;2023-04-20T07:22:53;9.18;;;3.08;;
47021;SDS011;32779;52.264;6.154;2023-04-20T07:25:19;8.63;;;3.50;;
47021;SDS011;32779;52.264;6.154;2023-04-20T07:27:45;10.68;;;3.42;;
47021;SDS011;32779;52.264;6.154;2023-04-20T07:30:11;7.22;;;3.58;;
47021;SDS011;32779;52.264;6.154;2023-04-20T07:32:37;9.65;;;3.55;;
47021;SDS011;32779;52.264;6.154;2023-04-20T07:35:03;7.00;;;3.30;;
47021;SDS011;32779;52.264;6.154;2023-04-20T07:37:30;7.60;;;3.50;;
47021;SDS011;32779;52.264;6.154;2023-04-20T07:39:58;12.48;;;3.60;;
47021;SDS011;32779;52.264;6.154;2023-04-20T07:42:24;6.28;;;3.70;;
47021;SDS011;32779;52.264;6.154;2023-04-20T07:44:49;11.32;;;3.72;;
47021;SDS011;32779;52.264;6.154;2023-04-20T07:47:15;6.95;;;3.60;;
47021;SDS011;32779;52.264;6.154;2023-04-20T07:49:41;7.38;;;3.70;;
47021;SDS011;32779;52.264;6.154;2023-04-20T07:52:07;7.57;;;3.50;;
47021;SDS011;32779;52.264;6.154;2023-04-20T07:54:33;9.35;;;3.38;;
47021;SDS011;32779;52.264;6.154;2023-04-20T07:56:59;15.32;;;3.97;;
47021;SDS011;32779;52.264;6.154;2023-04-20T07:59:25;8.02;;;3.58;;
47021;SDS011;32779;52.264;6.154;2023-04-20T08:01:51;8.85;;;3.40;;
47021;SDS011;32779;52.264;6.154;2023-04-20T08:04:17;8.30;;;4.05;;
47021;SDS011;32779;52.264;6.154;2023-04-20T08:06:42;7.85;;;3.28;;
47021;SDS011;32779;52.264;6.154;2023-04-20T08:09:08;9.52;;;3.75;;
47021;SDS011;32779;52.264;6.154;2023-04-20T08:11:34;7.50;;;3.60;;
47021;SDS011;32779;52.264;6.154;2023-04-20T08:13:59;7.63;;;3.72;;
47021;SDS011;32779;52.264;6.154;2023-04-20T08:16:25;9.02;;;3.95;;
47021;SDS011;32779;52.264;6.154;2023-04-20T08:18:51;6.60;;;3.55;;
47021;SDS011;32779;52.264;6.154;2023-04-20T08:21:16;8.43;;;3.58;;
47021;SDS011;32779;52.264;6.154;2023-04-20T08:23:42;9.05;;;4.30;;
47021;SDS011;32779;52.264;6.154;2023-04-20T08:26:13;7.82;;;3.92;;
47021;SDS011;32779;52.264;6.154;2023-04-20T08:28:40;7.85;;;3.72;;
47021;SDS011;32779;52.264;6.154;2023-04-20T08:31:07;15.63;;;4.32;;
47021;SDS011;32779;52.264;6.154;2023-04-20T08:33:33;9.80;;;4.20;;
47021;SDS011;32779;52.264;6.154;2023-04-20T08:35:58;7.57;;;4.50;;
47021;SDS011;32779;52.264;6.154;2023-04-20T08:38:24;9.88;;;3.90;;
47021;SDS011;32779;52.264;6.154;2023-04-20T08:40:50;10.60;;;4.30;;
47021;SDS011;32779;52.264;6.154;2023-04-20T08:43:15;8.55;;;3.90;;
47021;SDS011;32779;52.264;6.154;2023-04-20T08:45:41;10.52;;;4.10;;
47021;SDS011;32779;52.264;6.154;2023-04-20T08:48:12;8.25;;;4.40;;
47021;SDS011;32779;52.264;6.154;2023-04-20T08:50:40;6.63;;;3.75;;
47021;SDS011;32779;52.264;6.154;2023-04-20T08:53:06;7.72;;;3.45;;
47021;SDS011;32779;52.264;6.154;2023-04-20T08:55:33;12.07;;;3.67;;
47021;SDS011;32779;52.264;6.154;2023-04-20T08:57:59;9.65;;;3.80;;
47021;SDS011;32779;52.264;6.154;2023-04-20T09:00:25;6.18;;;3.38;;
47021;SDS011;32779;52.264;6.154;2023-04-20T09:02:51;7.57;;;4.00;;
47021;SDS011;32779;52.264;6.154;2023-04-20T09:05:28;10.98;;;3.85;;
47021;SDS011;32779;52.264;6.154;2023-04-20T09:07:56;6.50;;;3.88;;
47021;SDS011;32779;52.264;6.154;2023-04-20T09:10:24;8.23;;;3.70;;
47021;SDS011;32779;52.264;6.154;2023-04-20T09:12:51;8.45;;;3.60;;
47021;SDS011;32779;52.264;6.154;2023-04-20T09:17:52;5.72;;;3.58;;
47021;SDS011;32779;52.264;6.154;2023-04-20T09:20:31;8.60;;;3.70;;
47021;SDS011;32779;52.264;6.154;2023-04-20T09:23:09;7.00;;;3.80;;
47021;SDS011;32779;52.264;6.154;2023-04-20T09:25:35;8.57;;;4.03;;
47021;SDS011;32779;52.264;6.154;2023-04-20T09:28:02;7.30;;;3.63;;
47021;SDS011;32779;52.264;6.154;2023-04-20T09:30:47;6.75;;;3.80;;
47021;SDS011;32779;52.264;6.154;2023-04-20T09:33:13;8.00;;;3.45;;
47021;SDS011;32779;52.264;6.154;2023-04-20T09:35:42;7.32;;;3.47;;
47021;SDS011;32779;52.264;6.154;2023-04-20T09:38:09;8.82;;;3.38;;
47021;SDS011;32779;52.264;6.154;2023-04-20T09:40:39;6.60;;;3.10;;
47021;SDS011;32779;52.264;6.154;2023-04-20T09:43:09;3.60;;;2.72;;
47021;SDS011;32779;52.264;6.154;2023-04-20T09:45:40;4.53;;;2.80;;
47021;SDS011;32779;52.264;6.154;2023-04-20T09:48:07;4.88;;;2.63;;
47021;SDS011;32779;52.264;6.154;2023-04-20T09:50:36;5.15;;;2.90;;
47021;SDS011;32779;52.264;6.154;2023-04-20T09:53:03;6.72;;;3.33;;
47021;SDS011;32779;52.264;6.154;2023-04-20T09:55:30;5.82;;;2.70;;
47021;SDS011;32779;52.264;6.154;2023-04-20T09:57:56;6.95;;;3.10;;
47021;SDS011;32779;52.264;6.154;2023-04-20T10:00:23;4.60;;;2.80;;
47021;SDS011;32779;52.264;6.154;2023-04-20T10:02:49;4.88;;;3.05;;
47021;SDS011;32779;52.264;6.154;2023-04-20T10:05:15;6.90;;;3.40;;
47021;SDS011;32779;52.264;6.154;2023-04-20T10:07:41;4.38;;;2.75;;
47021;SDS011;32779;52.264;6.154;2023-04-20T10:10:11;7.20;;;3.40;;
47021;SDS011;32779;52.264;6.154;2023-04-20T10:15:16;5.97;;;3.10;;
47021;SDS011;32779;52.264;6.154;2023-04-20T10:17:43;7.35;;;2.85;;
47021;SDS011;32779;52.264;6.154;2023-04-20T10:20:24;6.75;;;2.72;;
47021;SDS011;32779;52.264;6.154;2023-04-20T10:22:52;11.82;;;3.17;;
47021;SDS011;32779;52.264;6.154;2023-04-20T10:25:21;4.50;;;2.55;;
47021;SDS011;32779;52.264;6.154;2023-04-20T10:28:07;6.03;;;3.10;;
47021;SDS011;32779;52.264;6.154;2023-04-20T10:30:35;5.75;;;2.65;;
47021;SDS011;32779;52.264;6.154;2023-04-20T10:33:05;6.15;;;2.90;;
47021;SDS011;32779;52.264;6.154;2023-04-20T10:38:34;4.32;;;2.53;;
47021;SDS011;32779;52.264;6.154;2023-04-20T10:41:07;5.82;;;2.75;;
47021;SDS011;32779;52.264;6.154;2023-04-20T10:43:36;4.43;;;2.53;;
47021;SDS011;32779;52.264;6.154;2023-04-20T10:46:18;4.68;;;3.03;;
47021;SDS011;32779;52.264;6.154;2023-04-20T10:48:56;6.47;;;3.05;;
47021;SDS011;32779;52.264;6.154;2023-04-20T10:53:58;4.75;;;2.92;;
47021;SDS011;32779;52.264;6.154;2023-04-20T10:56:25;4.47;;;3.35;;
47021;SDS011;32779;52.264;6.154;2023-04-20T10:58:51;8.70;;;3.17;;
47021;SDS011;32779;52.264;6.154;2023-04-20T11:01:17;5.30;;;3.78;;
47021;SDS011;32779;52.264;6.154;2023-04-20T11:03:47;7.07;;;3.50;;
47021;SDS011;32779;52.264;6.154;2023-04-20T11:06:16;4.25;;;2.97;;
47021;SDS011;32779;52.264;6.154;2023-04-20T11:08:41;3.03;;;2.30;;
47021;SDS011;32779;52.264;6.154;2023-04-20T11:11:17;4.68;;;3.20;;
47021;SDS011;32779;52.264;6.154;2023-04-20T11:14:09;7.10;;;3.28;;
47021;SDS011;32779;52.264;6.154;2023-04-20T11:16:36;6.93;;;3.30;;
47021;SDS011;32779;52.264;6.154;2023-04-20T11:19:03;5.50;;;2.92;;
47021;SDS011;32779;52.264;6.154;2023-04-20T11:21:41;5.18;;;3.70;;
47021;SDS011;32779;52.264;6.154;2023-04-20T11:24:16;5.15;;;3.25;;
47021;SDS011;32779;52.264;6.154;2023-04-20T11:26:43;6.40;;;3.58;;
47021;SDS011;32779;52.264;6.154;2023-04-20T11:29:09;4.72;;;3.28;;
47021;SDS011;32779;52.264;6.154;2023-04-20T11:31:35;6.10;;;3.22;;
47021;SDS011;32779;52.264;6.154;2023-04-20T11:34:02;6.90;;;3.15;;
47021;SDS011;32779;52.264;6.154;2023-04-20T11:36:28;4.88;;;3.35;;
47021;SDS011;32779;52.264;6.154;2023-04-20T11:39:05;6.05;;;3.05;;
47021;SDS011;32779;52.264;6.154;2023-04-20T11:41:32;3.97;;;3.28;;
47021;SDS011;32779;52.264;6.154;2023-04-20T11:43:57;5.55;;;3.58;;
47021;SDS011;32779;52.264;6.154;2023-04-20T11:46:23;7.05;;;3.35;;
47021;SDS011;32779;52.264;6.154;2023-04-20T11:48:49;5.35;;;3.97;;
47021;SDS011;32779;52.264;6.154;2023-04-20T11:51:14;5.20;;;3.35;;
47021;SDS011;32779;52.264;6.154;2023-04-20T11:53:40;5.65;;;3.63;;
47021;SDS011;32779;52.264;6.154;2023-04-20T11:56:06;7.28;;;3.50;;
47021;SDS011;32779;52.264;6.154;2023-04-20T11:58:32;4.82;;;3.63;;
47021;SDS011;32779;52.264;6.154;2023-04-20T12:00:58;7.47;;;3.53;;
47021;SDS011;32779;52.264;6.154;2023-04-20T12:03:24;3.42;;;3.13;;
47021;SDS011;32779;52.264;6.154;2023-04-20T12:05:50;5.53;;;3.35;;
47021;SDS011;32779;52.264;6.154;2023-04-20T12:08:16;4.68;;;3.40;;
47021;SDS011;32779;52.264;6.154;2023-04-20T12:10:42;7.63;;;4.00;;
47021;SDS011;32779;52.264;6.154;2023-04-20T12:13:07;5.70;;;3.70;;
47021;SDS011;32779;52.264;6.154;2023-04-20T12:15:33;5.85;;;4.13;;
47021;SDS011;32779;52.264;6.154;2023-04-20T12:17:58;6.43;;;3.55;;
47021;SDS011;32779;52.264;6.154;2023-04-20T12:20:24;6.43;;;3.85;;
47021;SDS011;32779;52.264;6.154;2023-04-20T12:22:50;5.75;;;3.83;;
47021;SDS011;32779;52.264;6.154;2023-04-20T12:25:15;5.15;;;3.90;;
47021;SDS011;32779;52.264;6.154;2023-04-20T12:27:41;5.70;;;3.50;;
47021;SDS011;32779;52.264;6.154;2023-04-20T12:30:06;6.93;;;3.35;;
47021;SDS011;32779;52.264;6.154;2023-04-20T12:32:33;6.97;;;3.47;;
47021;SDS011;32779;52.264;6.154;2023-04-20T12:34:59;6.88;;;3.85;;
47021;SDS011;32779;52.264;6.154;2023-04-20T12:37:24;7.30;;;3.60;;
47021;SDS011;32779;52.264;6.154;2023-04-20T12:39:51;7.72;;;3.30;;
47021;SDS011;32779;52.264;6.154;2023-04-20T12:42:17;7.57;;;3.50;;
47021;SDS011;32779;52.264;6.154;2023-04-20T12:44:42;4.05;;;2.97;;
47021;SDS011;32779;52.264;6.154;2023-04-20T12:47:08;3.95;;;2.78;;
47021;SDS011;32779;52.264;6.154;2023-04-20T12:49:34;8.25;;;3.10;;
47021;SDS011;32779;52.264;6.154;2023-04-20T12:51:59;3.85;;;2.88;;
47021;SDS011;32779;52.264;6.154;2023-04-20T12:54:25;4.80;;;3.30;;
47021;SDS011;32779;52.264;6.154;2023-04-20T12:56:50;7.03;;;3.60;;
47021;SDS011;32779;52.264;6.154;2023-04-20T12:59:16;4.05;;;3.20;;
47021;SDS011;32779;52.264;6.154;2023-04-20T13:01:41;4.55;;;3.47;;
47021;SDS011;32779;52.264;6.154;2023-04-20T13:04:07;5.00;;;3.00;;
47021;SDS011;32779;52.264;6.154;2023-04-20T13:06:33;4.25;;;3.40;;
47021;SDS011;32779;52.264;6.154;2023-04-20T13:08:59;6.05;;;3.60;;
47021;SDS011;32779;52.264;6.154;2023-04-20T13:11:25;3.92;;;3.30;;
47021;SDS011;32779;52.264;6.154;2023-04-20T13:13:50;7.85;;;3.97;;
47021;SDS011;32779;52.264;6.154;2023-04-20T13:16:16;5.65;;;3.45;;
47021;SDS011;32779;52.264;6.154;2023-04-20T13:18:42;7.72;;;4.13;;
47021;SDS011;32779;52.264;6.154;2023-04-20T13:21:07;8.10;;;3.63;;
47021;SDS011;32779;52.264;6.154;2023-04-20T13:23:33;6.18;;;3.70;;
47021;SDS011;32779;52.264;6.154;2023-04-20T13:25:59;7.00;;;3.85;;
47021;SDS011;32779;52.264;6.154;2023-04-20T13:28:25;4.45;;;4.00;;
47021;SDS011;32779;52.264;6.154;2023-04-20T13:30:51;9.80;;;4.10;;
47021;SDS011;32779;52.264;6.154;2023-04-20T13:33:19;5.53;;;4.03;;
47021;SDS011;32779;52.264;6.154;2023-04-20T13:35:44;5.07;;;3.90;;
47021;SDS011;32779;52.264;6.154;2023-04-20T13:38:10;6.40;;;3.72;;
47021;SDS011;32779;52.264;6.154;2023-04-20T13:40:36;5.00;;;3.78;;
47021;SDS011;32779;52.264;6.154;2023-04-20T13:43:01;7.53;;;3.72;;
47021;SDS011;32779;52.264;6.154;2023-04-20T13:45:27;6.30;;;3.88;;
47021;SDS011;32779;52.264;6.154;2023-04-20T13:47:52;6.60;;;3.80;;
47021;SDS011;32779;52.264;6.154;2023-04-20T13:50:18;5.53;;;4.10;;
47021;SDS011;32779;52.264;6.154;2023-04-20T13:52:44;4.30;;;3.78;;
47021;SDS011;32779;52.264;6.154;2023-04-20T13:55:09;5.68;;;3.92;;
47021;SDS011;32779;52.264;6.154;2023-04-20T13:57:35;5.70;;;3.58;;
47021;SDS011;32779;52.264;6.154;2023-04-20T14:00:01;4.82;;;3.97;;
47021;SDS011;32779;52.264;6.154;2023-04-20T14:02:27;4.32;;;3.40;;
47021;SDS011;32779;52.264;6.154;2023-04-20T14:04:53;5.05;;;3.55;;
47021;SDS011;32779;52.264;6.154;2023-04-20T14:07:20;6.60;;;3.83;;
47021;SDS011;32779;52.264;6.154;2023-04-20T14:09:45;4.55;;;3.83;;
47021;SDS011;32779;52.264;6.154;2023-04-20T14:12:11;6.38;;;4.10;;
47021;SDS011;32779;52.264;6.154;2023-04-20T14:14:38;7.28;;;3.97;;
47021;SDS011;32779;52.264;6.154;2023-04-20T14:17:04;5.00;;;3.67;;
47021;SDS011;32779;52.264;6.154;2023-04-20T14:19:30;7.50;;;4.18;;
47021;SDS011;32779;52.264;6.154;2023-04-20T14:21:56;6.80;;;4.63;;
47021;SDS011;32779;52.264;6.154;2023-04-20T14:24:21;6.25;;;4.18;;
47021;SDS011;32779;52.264;6.154;2023-04-20T14:26:49;5.35;;;3.70;;
47021;SDS011;32779;52.264;6.154;2023-04-20T14:29:15;4.78;;;3.85;;
47021;SDS011;32779;52.264;6.154;2023-04-20T14:31:41;6.43;;;4.00;;
47021;SDS011;32779;52.264;6.154;2023-04-20T14:34:06;4.72;;;3.97;;
47021;SDS011;32779;52.264;6.154;2023-04-20T14:36:33;6.65;;;3.67;;
47021;SDS011;32779;52.264;6.154;2023-04-20T14:38:59;6.00;;;3.47;;
47021;SDS011;32779;52.264;6.154;2023-04-20T14:41:24;4.00;;;3.58;;
47021;SDS011;32779;52.264;6.154;2023-04-20T14:43:50;4.43;;;3.58;;
47021;SDS011;32779;52.264;6.154;2023-04-20T14:46:16;6.28;;;3.65;;
47021;SDS011;32779;52.264;6.154;2023-04-20T14:48:42;4.85;;;3.47;;
47021;SDS011;32779;52.264;6.154;2023-04-20T14:51:10;5.75;;;3.95;;
47021;SDS011;32779;52.264;6.154;2023-04-20T14:53:36;7.75;;;4.00;;
47021;SDS011;32779;52.264;6.154;2023-04-20T14:56:01;4.30;;;3.58;;
47021;SDS011;32779;52.264;6.154;2023-04-20T14:58:27;6.97;;;4.68;;
47021;SDS011;32779;52.264;6.154;2023-04-20T15:00:52;7.07;;;3.80;;
47021;SDS011;32779;52.264;6.154;2023-04-20T15:03:18;6.97;;;3.55;;
47021;SDS011;32779;52.264;6.154;2023-04-20T15:05:44;5.72;;;3.60;;